Time;durP1;ratioP1;P1;durP2;ratioP2;P2;SDS_P1;SDS_P2;PMS_P1;PMS_P2;Temp;Humidity;BMP_temperature;BMP_pressure;BME280_temperature;BME280_humidity;BME280_pressure;Samples;Min_cycle;Max_cycle;Signal;HPM_P1;HPM_P2
2021/04/25 00:01:00;;;;;;;11.23;5.70;;;6.60;99.90;;;;;;6278234;22;20023;-77
2021/04/25 00:03:31;;;;;;;11.85;6.60;;;6.50;99.90;;;;;;6279872;22;20050;-78
2021/04/25 00:06:03;;;;;;;11.98;6.63;;;6.50;99.90;;;;;;6253446;22;20451;-77
2021/04/25 00:08:35;;;;;;;9.57;6.13;;;6.40;99.90;;;;;;6254532;22;20011;-77
2021/04/25 00:11:02;;;;;;;12.23;7.07;;;6.40;99.90;;;;;;6252899;22;20428;-77
2021/04/25 00:13:29;;;;;;;11.15;6.85;;;6.40;99.90;;;;;;6278013;22;20122;-78
2021/04/25 00:16:00;;;;;;;14.02;7.35;;;6.40;99.90;;;;;;6253396;22;20105;-77
2021/04/25 00:18:34;;;;;;;9.60;6.07;;;6.30;99.90;;;;;;6279955;22;20026;-78
2021/04/25 00:21:01;;;;;;;10.85;6.70;;;6.30;99.90;;;;;;6253162;22;20106;-77
2021/04/25 00:23:33;;;;;;;8.82;6.00;;;6.40;99.90;;;;;;6279423;22;20022;-78
2021/04/25 00:26:04;;;;;;;9.20;5.95;;;6.40;99.90;;;;;;6253173;22;20437;-77
2021/04/25 00:28:36;;;;;;;11.05;6.05;;;6.40;99.90;;;;;;6279718;22;20411;-78
2021/04/25 00:31:02;;;;;;;11.55;6.45;;;6.40;99.90;;;;;;6305536;22;20046;-77
2021/04/25 00:33:33;;;;;;;9.77;6.63;;;6.40;99.90;;;;;;6279790;22;20042;-78
2021/04/25 00:36:05;;;;;;;10.27;6.13;;;6.40;99.90;;;;;;6252756;22;20011;-77
2021/04/25 00:38:31;;;;;;;9.50;6.20;;;6.20;99.90;;;;;;6278250;22;20129;-78
2021/04/25 00:41:02;;;;;;;8.80;5.95;;;6.10;99.90;;;;;;6253816;22;20346;-77
2021/04/25 00:43:34;;;;;;;10.23;5.55;;;6.10;99.90;;;;;;6278062;22;20419;-78
2021/04/25 00:46:05;;;;;;;11.10;6.50;;;6.00;99.90;;;;;;6253515;22;20064;-77
2021/04/25 00:48:32;;;;;;;11.38;6.35;;;6.00;99.90;;;;;;6278644;22;20086;-78
2021/04/25 00:51:09;;;;;;;9.02;6.30;;;5.90;99.90;;;;;;6253821;22;20019;-77
2021/04/25 00:53:44;;;;;;;9.95;6.38;;;5.90;99.90;;;;;;6278125;22;20022;-78
2021/04/25 00:56:15;;;;;;;9.15;5.55;;;5.80;99.90;;;;;;6277751;22;20018;-77
2021/04/25 00:58:48;;;;;;;11.35;6.57;;;5.80;99.90;;;;;;6278373;22;20019;-78
2021/04/25 01:01:15;;;;;;;10.07;6.20;;;5.80;99.90;;;;;;6251287;22;20039;-77
2021/04/25 01:03:46;;;;;;;12.23;6.75;;;5.80;99.90;;;;;;6278715;22;20124;-77
2021/04/25 01:06:17;;;;;;;12.88;7.07;;;5.70;99.90;;;;;;6277025;22;20017;-78
2021/04/25 01:08:49;;;;;;;10.00;5.85;;;5.80;99.90;;;;;;6278981;22;20067;-77
2021/04/25 01:11:15;;;;;;;12.25;6.43;;;5.70;99.90;;;;;;6272019;22;20059;-77
2021/04/25 01:13:42;;;;;;;11.57;7.57;;;5.70;99.90;;;;;;6276831;22;20051;-77
2021/04/25 01:16:13;;;;;;;13.60;7.10;;;5.70;99.90;;;;;;6275413;22;20019;-77
2021/04/25 01:18:44;;;;;;;9.32;6.00;;;5.70;99.90;;;;;;6278730;22;20019;-77
2021/04/25 01:21:15;;;;;;;11.38;6.00;;;5.60;99.90;;;;;;6277124;22;20105;-77
2021/04/25 01:23:42;;;;;;;11.45;5.53;;;5.60;99.90;;;;;;6277359;22;20061;-77
2021/04/25 01:26:13;;;;;;;9.35;5.88;;;5.60;99.90;;;;;;6304173;22;20015;-77
2021/04/25 01:28:45;;;;;;;10.07;5.35;;;5.50;99.90;;;;;;6277163;22;20015;-78
2021/04/25 01:31:16;;;;;;;10.93;6.75;;;5.40;99.90;;;;;;6279107;22;20019;-77
2021/04/25 01:33:47;;;;;;;10.57;7.20;;;5.40;99.90;;;;;;6278022;22;20106;-77
2021/04/25 01:36:18;;;;;;;11.90;6.78;;;5.30;99.90;;;;;;6279219;22;20098;-77
2021/04/25 01:38:50;;;;;;;9.63;5.72;;;5.40;99.90;;;;;;6254007;22;20024;-78
2021/04/25 01:41:21;;;;;;;11.75;6.80;;;5.30;99.90;;;;;;6253517;22;20029;-78
2021/04/25 01:43:47;;;;;;;11.65;6.47;;;5.30;99.90;;;;;;6251636;22;20011;-77
2021/04/25 01:46:19;;;;;;;9.55;6.28;;;5.20;99.90;;;;;;6304004;22;20143;-77
2021/04/25 01:48:50;;;;;;;11.98;6.47;;;5.20;99.90;;;;;;6254931;22;20098;-78
2021/04/25 01:51:16;;;;;;;9.80;6.47;;;5.20;99.90;;;;;;6253697;22;20023;-78
2021/04/25 01:53:47;;;;;;;8.95;5.50;;;5.10;99.90;;;;;;6254349;22;20106;-77
2021/04/25 01:56:19;;;;;;;10.68;6.07;;;5.10;99.90;;;;;;6279205;22;20069;-77
2021/04/25 01:58:50;;;;;;;11.52;7.00;;;5.10;99.90;;;;;;6281447;22;20514;-77
2021/04/25 02:01:16;;;;;;;10.95;6.25;;;5.20;99.90;;;;;;6279976;22;20039;-77
2021/04/25 02:03:48;;;;;;;9.93;5.95;;;5.10;99.90;;;;;;6280977;22;20098;-77
2021/04/25 02:06:19;;;;;;;11.38;6.00;;;5.10;99.90;;;;;;6254288;22;20039;-78
2021/04/25 02:08:50;;;;;;;10.15;5.88;;;5.10;99.90;;;;;;6255762;22;20413;-77
2021/04/25 02:11:17;;;;;;;9.52;6.65;;;5.10;99.90;;;;;;6280176;22;20110;-77
2021/04/25 02:13:43;;;;;;;10.93;6.30;;;5.10;99.90;;;;;;6306808;22;20407;-77
2021/04/25 02:16:14;;;;;;;10.98;6.22;;;5.10;99.90;;;;;;6279023;22;20025;-78
2021/04/25 02:18:45;;;;;;;9.50;6.70;;;5.10;99.90;;;;;;6255508;22;20017;-77
2021/04/25 02:21:17;;;;;;;9.93;5.93;;;5.00;99.90;;;;;;6279625;22;20015;-77
2021/04/25 02:23:48;;;;;;;9.85;5.72;;;5.00;99.90;;;;;;6279331;22;20021;-78
2021/04/25 02:26:14;;;;;;;8.57;5.75;;;5.00;99.90;;;;;;6253078;22;20081;-77
2021/04/25 02:28:45;;;;;;;9.77;5.72;;;5.00;99.90;;;;;;6280891;22;20436;-77
2021/04/25 02:31:12;;;;;;;7.97;5.28;;;5.00;99.90;;;;;;6279439;22;20098;-77
2021/04/25 02:33:43;;;;;;;11.40;5.63;;;5.00;99.90;;;;;;6306712;22;20015;-78
2021/04/25 02:36:14;;;;;;;8.57;5.25;;;4.90;99.90;;;;;;6278997;22;20016;-78
2021/04/25 02:38:45;;;;;;;10.05;5.68;;;4.90;99.90;;;;;;6255129;22;20043;-77
2021/04/25 02:41:16;;;;;;;8.23;5.40;;;4.80;99.90;;;;;;6306987;22;20106;-78
2021/04/25 02:43:48;;;;;;;12.05;5.43;;;4.70;99.90;;;;;;6254780;22;20407;-77
2021/04/25 02:46:19;;;;;;;13.60;5.57;;;4.70;99.90;;;;;;6280106;22;20095;-77
2021/04/25 02:48:51;;;;;;;11.43;5.78;;;4.70;99.90;;;;;;6279459;22;20042;-78
2021/04/25 02:51:22;;;;;;;13.73;5.65;;;4.70;99.90;;;;;;6279528;22;20027;-79
2021/04/25 02:53:53;;;;;;;9.73;5.63;;;4.70;99.90;;;;;;6279152;22;20011;-78
2021/04/25 02:56:24;;;;;;;12.75;5.80;;;4.70;99.90;;;;;;6254420;22;20015;-78
2021/04/25 02:58:55;;;;;;;8.35;4.93;;;4.70;99.90;;;;;;6255203;22;20020;-78
2021/04/25 03:01:27;;;;;;;9.15;6.03;;;4.60;99.90;;;;;;6279401;22;20037;-78
2021/04/25 03:03:53;;;;;;;11.50;6.10;;;4.60;99.90;;;;;;6279035;22;20058;-78
2021/04/25 03:06:24;;;;;;;11.27;5.80;;;4.50;99.90;;;;;;6280018;22;20458;-77
2021/04/25 03:08:55;;;;;;;8.05;5.50;;;4.50;99.90;;;;;;6279539;22;20094;-78
2021/04/25 03:11:26;;;;;;;11.60;6.13;;;4.50;99.90;;;;;;6279494;22;20019;-77
2021/04/25 03:13:53;;;;;;;10.15;6.75;;;4.50;99.90;;;;;;6253525;22;20030;-77
2021/04/25 03:16:19;;;;;;;10.35;6.03;;;4.40;99.90;;;;;;6253345;22;20356;-77
2021/04/25 03:18:51;;;;;;;11.25;6.30;;;4.40;99.90;;;;;;6306453;22;20025;-77
2021/04/25 03:21:22;;;;;;;10.75;6.05;;;4.30;99.90;;;;;;6280385;22;20094;-79
2021/04/25 03:23:53;;;;;;;8.38;5.95;;;4.30;99.90;;;;;;6278797;22;20334;-77
2021/04/25 03:26:19;;;;;;;9.40;5.97;;;4.20;99.90;;;;;;6278938;22;20027;-77
2021/04/25 03:28:46;;;;;;;10.25;6.30;;;4.30;99.90;;;;;;6279572;22;20503;-78
2021/04/25 03:31:17;;;;;;;10.90;6.40;;;4.30;99.90;;;;;;6254771;22;20029;-77
2021/04/25 03:33:48;;;;;;;10.00;6.47;;;4.30;99.90;;;;;;6254377;22;20098;-77
2021/04/25 03:36:19;;;;;;;10.18;5.65;;;4.30;99.90;;;;;;6253923;22;20109;-77
2021/04/25 03:38:45;;;;;;;12.23;5.82;;;4.30;99.90;;;;;;6253642;22;20102;-77
2021/04/25 03:41:17;;;;;;;10.85;5.95;;;4.30;99.90;;;;;;6254180;22;20111;-74
2021/04/25 03:43:48;;;;;;;12.32;6.13;;;4.30;99.90;;;;;;6280419;22;20011;-80
2021/04/25 03:46:20;;;;;;;12.85;6.53;;;4.20;99.90;;;;;;6254032;22;20039;-80
2021/04/25 03:48:51;;;;;;;11.23;6.15;;;4.20;99.90;;;;;;6279340;22;20069;-80
2021/04/25 03:51:23;;;;;;;10.90;5.68;;;4.20;99.90;;;;;;6307103;22;20099;-80
2021/04/25 03:53:54;;;;;;;8.38;5.47;;;4.20;99.90;;;;;;6278886;22;20051;-80
2021/04/25 03:56:25;;;;;;;8.07;5.60;;;4.20;99.90;;;;;;6279685;22;20355;-80
2021/04/25 03:58:58;;;;;;;8.45;5.90;;;4.20;99.90;;;;;;6306401;22;20494;-80
2021/04/25 04:01:24;;;;;;;10.30;6.07;;;4.20;99.90;;;;;;6279333;22;20037;-80
2021/04/25 04:03:56;;;;;;;12.30;5.47;;;4.10;99.90;;;;;;6279301;22;20113;-80
2021/04/25 04:06:27;;;;;;;8.27;5.35;;;4.10;99.90;;;;;;6305915;22;20393;-80
2021/04/25 04:08:58;;;;;;;11.45;6.13;;;4.00;99.90;;;;;;6254322;22;20012;-80
2021/04/25 04:11:30;;;;;;;10.45;5.40;;;4.10;99.90;;;;;;6305405;22;20510;-80
2021/04/25 04:14:01;;;;;;;10.88;5.75;;;4.00;99.90;;;;;;6254582;22;20422;-80
2021/04/25 04:16:32;;;;;;;8.52;5.45;;;4.00;99.90;;;;;;6278430;22;20050;-80
2021/04/25 04:19:03;;;;;;;9.55;5.97;;;4.00;99.90;;;;;;6278877;22;20057;-80
2021/04/25 04:21:35;;;;;;;8.63;4.93;;;4.00;99.90;;;;;;6278840;22;20410;-80
2021/04/25 04:24:07;;;;;;;9.93;6.15;;;4.10;99.90;;;;;;6278461;22;20021;-80
2021/04/25 04:26:38;;;;;;;7.57;5.53;;;4.00;99.90;;;;;;6278637;22;20034;-80
2021/04/25 04:29:09;;;;;;;11.70;6.03;;;4.00;99.90;;;;;;6278716;22;20053;-80
2021/04/25 04:31:40;;;;;;;10.50;6.15;;;4.00;99.90;;;;;;6278834;22;20043;-80
2021/04/25 04:34:12;;;;;;;11.13;5.63;;;4.00;99.90;;;;;;6279982;22;20020;-80
2021/04/25 04:36:43;;;;;;;9.43;6.15;;;4.00;99.90;;;;;;6254398;22;20106;-79
2021/04/25 04:39:14;;;;;;;9.65;6.95;;;4.00;99.90;;;;;;6278411;22;20019;-80
2021/04/25 04:41:46;;;;;;;9.77;6.90;;;4.00;99.90;;;;;;6279946;22;20065;-80
2021/04/25 04:44:18;;;;;;;9.10;5.65;;;4.00;99.90;;;;;;6279431;22;20047;-80
2021/04/25 04:46:50;;;;;;;16.40;6.40;;;4.00;99.90;;;;;;6254645;22;20035;-80
2021/04/25 04:49:21;;;;;;;13.90;6.35;;;4.10;99.90;;;;;;6254378;22;20101;-80
2021/04/25 04:51:52;;;;;;;11.80;6.22;;;4.10;99.90;;;;;;6306260;22;20039;-80
2021/04/25 04:54:24;;;;;;;9.48;6.13;;;4.20;99.90;;;;;;6277698;22;20021;-80
2021/04/25 04:56:55;;;;;;;10.73;6.25;;;4.20;99.90;;;;;;6279944;22;20061;-80
2021/04/25 04:59:21;;;;;;;11.45;6.40;;;4.30;99.90;;;;;;6253404;22;20023;-80
2021/04/25 05:01:47;;;;;;;12.25;6.60;;;4.30;99.90;;;;;;6278917;22;20392;-80
2021/04/25 05:04:19;;;;;;;9.10;5.47;;;4.30;99.90;;;;;;6277688;22;20015;-80
2021/04/25 05:06:50;;;;;;;10.88;6.25;;;4.40;99.90;;;;;;6279474;22;20042;-78
2021/04/25 05:09:21;;;;;;;12.52;6.60;;;4.40;99.90;;;;;;6277671;22;20435;-78
2021/04/25 05:11:47;;;;;;;9.70;6.07;;;4.50;99.90;;;;;;6251541;22;20023;-78
2021/04/25 05:14:19;;;;;;;12.57;6.38;;;4.50;99.90;;;;;;6251586;22;20023;-78
2021/04/25 05:16:50;;;;;;;8.45;5.88;;;4.60;99.90;;;;;;6252597;22;20015;-78
2021/04/25 05:19:21;;;;;;;10.50;6.50;;;4.60;99.90;;;;;;6304187;22;20094;-78
2021/04/25 05:21:52;;;;;;;11.88;6.25;;;4.60;99.90;;;;;;6278417;22;20022;-78
2021/04/25 05:24:23;;;;;;;11.98;6.72;;;4.70;99.90;;;;;;6253083;22;20041;-78
2021/04/25 05:26:55;;;;;;;9.45;5.78;;;4.70;99.90;;;;;;6278936;22;20044;-78
2021/04/25 05:29:26;;;;;;;10.00;6.40;;;4.80;99.90;;;;;;6248834;22;20094;-78
2021/04/25 05:31:59;;;;;;;12.18;7.07;;;4.80;99.90;;;;;;6253971;22;20023;-78
2021/04/25 05:34:25;;;;;;;13.45;6.82;;;4.90;99.90;;;;;;6252037;22;20023;-78
2021/04/25 05:36:56;;;;;;;14.38;6.55;;;4.90;99.90;;;;;;6279029;22;20019;-78
2021/04/25 05:39:22;;;;;;;13.18;8.07;;;5.00;99.90;;;;;;6252912;22;20101;-78
2021/04/25 05:41:54;;;;;;;15.07;8.52;;;5.00;99.90;;;;;;6278739;22;20015;-78
2021/04/25 05:44:20;;;;;;;20.67;9.82;;;5.10;99.90;;;;;;6251860;22;20110;-77
2021/04/25 05:46:51;;;;;;;16.95;8.90;;;5.20;99.90;;;;;;6254198;22;20019;-78
2021/04/25 05:49:23;;;;;;;14.57;8.68;;;5.20;99.90;;;;;;6254998;22;20094;-78
2021/04/25 05:51:54;;;;;;;16.23;8.73;;;5.30;99.90;;;;;;6281421;22;20466;-78
2021/04/25 05:54:20;;;;;;;15.40;8.50;;;5.40;99.90;;;;;;6279194;22;20439;-78
2021/04/25 05:56:51;;;;;;;16.58;9.63;;;5.40;99.90;;;;;;6280147;22;20105;-78
2021/04/25 05:59:22;;;;;;;17.35;8.73;;;5.50;99.90;;;;;;6280264;22;20359;-78
2021/04/25 06:01:49;;;;;;;17.75;9.60;;;5.50;99.90;;;;;;6254690;22;20110;-78
2021/04/25 06:04:20;;;;;;;17.77;9.52;;;5.60;99.90;;;;;;6253760;22;20038;-77
2021/04/25 06:06:51;;;;;;;18.90;9.80;;;5.60;99.90;;;;;;6255243;22;20038;-78
2021/04/25 06:09:23;;;;;;;22.33;13.80;;;5.60;99.90;;;;;;6255406;22;20015;-78
2021/04/25 06:11:54;;;;;;;78.18;49.08;;;5.70;99.90;;;;;;6255407;22;20015;-78
2021/04/25 06:14:25;;;;;;;22.25;13.43;;;5.80;99.90;;;;;;6278741;22;20678;-78
2021/04/25 06:16:56;;;;;;;17.92;13.18;;;5.80;99.90;;;;;;6255458;22;20019;-78
2021/04/25 06:19:27;;;;;;;32.58;20.40;;;5.80;99.90;;;;;;6254811;22;20015;-78
2021/04/25 06:21:59;;;;;;;18.40;12.43;;;5.90;99.90;;;;;;6279799;22;20022;-78
2021/04/25 06:24:25;;;;;;;16.95;10.68;;;6.00;99.90;;;;;;6278540;22;20015;-78
2021/04/25 06:26:51;;;;;;;15.75;10.82;;;6.00;99.90;;;;;;6279607;22;20057;-78
2021/04/25 06:29:17;;;;;;;16.80;12.23;;;6.10;99.90;;;;;;6279447;22;20095;-78
2021/04/25 06:31:48;;;;;;;17.35;11.50;;;6.20;99.90;;;;;;6255450;22;20417;-78
2021/04/25 06:34:20;;;;;;;17.15;11.02;;;6.20;99.90;;;;;;6253756;22;20023;-78
2021/04/25 06:36:46;;;;;;;14.52;10.38;;;6.30;99.90;;;;;;6279386;22;20109;-78
2021/04/25 06:39:17;;;;;;;22.65;11.95;;;6.30;99.90;;;;;;6254680;22;20022;-78
2021/04/25 06:41:44;;;;;;;15.95;11.15;;;6.40;99.90;;;;;;6279639;22;20046;-78
2021/04/25 06:44:15;;;;;;;21.70;14.45;;;6.40;99.90;;;;;;6254061;22;20098;-78
2021/04/25 06:46:46;;;;;;;18.60;12.43;;;6.50;99.90;;;;;;6279803;22;20329;-78
2021/04/25 06:49:12;;;;;;;19.65;12.38;;;6.50;99.90;;;;;;6304726;22;20318;-78
2021/04/25 06:51:43;;;;;;;17.60;14.75;;;6.50;99.90;;;;;;6279691;22;20042;-78
2021/04/25 06:54:10;;;;;;;18.48;11.85;;;6.60;99.90;;;;;;6305977;22;20502;-78
2021/04/25 06:56:42;;;;;;;18.15;11.57;;;6.70;99.90;;;;;;6255191;22;20225;-78
2021/04/25 06:59:13;;;;;;;18.73;11.82;;;6.80;99.90;;;;;;6279638;22;20098;-78
2021/04/25 07:01:45;;;;;;;20.08;12.35;;;6.90;99.90;;;;;;6278306;22;20019;-78
2021/04/25 07:04:11;;;;;;;23.40;12.40;;;7.00;99.90;;;;;;6276813;22;20050;-78
2021/04/25 07:06:42;;;;;;;20.55;11.68;;;7.10;99.90;;;;;;6278093;22;20054;-78
2021/04/25 07:09:13;;;;;;;17.20;11.55;;;7.10;99.90;;;;;;6253153;22;20097;-78
2021/04/25 07:11:44;;;;;;;19.13;11.77;;;7.20;99.90;;;;;;6254078;22;20110;-78
2021/04/25 07:14:16;;;;;;;17.50;11.85;;;7.20;99.90;;;;;;6276627;22;20020;-78
2021/04/25 07:16:47;;;;;;;16.65;12.18;;;7.30;99.90;;;;;;6253675;22;20098;-78
2021/04/25 07:19:24;;;;;;;23.20;12.63;;;7.40;99.90;;;;;;6274460;22;20027;-78
2021/04/25 07:21:55;;;;;;;19.48;12.57;;;7.50;99.90;;;;;;6278069;22;20470;-78
2021/04/25 07:24:21;;;;;;;20.48;13.07;;;7.50;99.90;;;;;;6276324;22;20050;-78
2021/04/25 07:26:48;;;;;;;18.58;13.30;;;7.60;99.90;;;;;;6277676;22;20037;-78
2021/04/25 07:29:19;;;;;;;19.33;12.40;;;7.70;99.90;;;;;;6278862;22;20764;-78
2021/04/25 07:31:51;;;;;;;17.73;11.80;;;7.80;99.90;;;;;;6277946;22;20422;-78
2021/04/25 07:34:22;;;;;;;16.95;12.02;;;8.00;99.90;;;;;;6276969;22;20025;-78
2021/04/25 07:36:54;;;;;;;19.80;13.38;;;8.00;99.90;;;;;;6280833;22;20098;-78
2021/04/25 07:39:25;;;;;;;21.60;13.77;;;8.10;99.90;;;;;;6256218;22;20110;-78
2021/04/25 07:41:57;;;;;;;19.23;13.25;;;8.20;99.90;;;;;;6256319;22;20015;-78
2021/04/25 07:44:29;;;;;;;18.15;12.68;;;8.30;99.90;;;;;;6279371;22;20021;-78
2021/04/25 07:46:56;;;;;;;21.20;13.13;;;8.40;99.90;;;;;;6281282;22;20016;-78
2021/04/25 07:49:27;;;;;;;17.85;13.00;;;8.50;99.90;;;;;;6308238;22;20018;-78
2021/04/25 07:51:53;;;;;;;19.25;13.23;;;8.60;99.90;;;;;;6282459;22;20035;-78
2021/04/25 07:54:26;;;;;;;22.58;13.82;;;8.70;99.90;;;;;;6280992;22;20033;-78
2021/04/25 07:56:53;;;;;;;18.83;13.02;;;8.80;99.90;;;;;;6280788;22;20396;-78
2021/04/25 07:59:19;;;;;;;18.88;13.40;;;9.00;99.90;;;;;;6281258;22;20514;-78
2021/04/25 08:01:46;;;;;;;21.60;13.30;;;9.20;99.90;;;;;;6281286;22;20027;-78
2021/04/25 08:04:17;;;;;;;22.38;15.40;;;9.30;99.90;;;;;;6253868;22;20011;-78
2021/04/25 08:06:48;;;;;;;22.83;14.00;;;9.30;99.90;;;;;;6255949;22;20336;-78
2021/04/25 08:09:19;;;;;;;24.10;14.32;;;9.30;99.90;;;;;;6282459;22;20069;-78
2021/04/25 08:11:51;;;;;;;19.05;13.70;;;9.40;99.90;;;;;;6254989;22;20444;-78
2021/04/25 08:14:17;;;;;;;23.67;15.85;;;9.40;99.90;;;;;;6279189;22;20540;-78
2021/04/25 08:16:48;;;;;;;21.60;13.02;;;9.50;99.90;;;;;;6281692;22;20015;-78
2021/04/25 08:19:19;;;;;;;20.65;13.80;;;9.70;99.90;;;;;;6254717;22;20015;-77
2021/04/25 08:21:51;;;;;;;18.63;12.68;;;9.80;99.90;;;;;;6255136;22;20016;-78
2021/04/25 08:24:22;;;;;;;25.42;13.70;;;10.00;99.90;;;;;;6254363;22;20101;-78
2021/04/25 08:26:49;;;;;;;19.63;13.68;;;10.20;99.90;;;;;;6277233;22;20025;-78
2021/04/25 08:29:20;;;;;;;20.00;14.18;;;10.40;99.90;;;;;;6256897;22;20093;-78
2021/04/25 08:31:46;;;;;;;20.50;15.70;;;10.50;99.90;;;;;;6254801;22;20110;-78
2021/04/25 08:34:12;;;;;;;18.45;13.75;;;10.50;99.90;;;;;;6305272;22;20051;-78
2021/04/25 08:36:39;;;;;;;20.60;14.68;;;10.60;99.90;;;;;;6279576;22;20023;-78
2021/04/25 08:39:10;;;;;;;18.65;12.77;;;10.60;99.90;;;;;;6280013;22;20093;-78
2021/04/25 08:41:41;;;;;;;20.17;13.15;;;10.80;99.90;;;;;;6279732;22;20102;-78
2021/04/25 08:44:18;;;;;;;20.83;13.57;;;10.90;99.90;;;;;;6278677;22;20038;-78
2021/04/25 08:46:46;;;;;;;22.83;14.05;;;10.90;99.90;;;;;;6254218;22;20142;-78
2021/04/25 08:49:26;;;;;;;21.70;14.60;;;11.10;99.90;;;;;;6255179;22;20451;-78
2021/04/25 08:51:58;;;;;;;17.05;13.55;;;11.20;99.90;;;;;;6255380;22;20110;-78
2021/04/25 08:54:27;;;;;;;23.52;15.65;;;11.30;99.90;;;;;;6252746;22;20034;-78
2021/04/25 08:56:59;;;;;;;18.85;14.30;;;11.40;99.90;;;;;;6251159;22;20025;-78
2021/04/25 08:59:25;;;;;;;16.95;12.65;;;11.60;99.90;;;;;;6279283;22;20053;-78
2021/04/25 09:01:56;;;;;;;17.50;12.93;;;11.60;99.90;;;;;;6256001;22;20015;-78
2021/04/25 09:04:23;;;;;;;21.70;12.95;;;11.70;99.90;;;;;;6279114;22;20102;-78
2021/04/25 09:07:05;;;;;;;16.92;12.23;;;11.80;99.80;;;;;;6256402;22;20343;-78
2021/04/25 09:09:52;;;;;;;15.13;11.75;;;11.90;99.40;;;;;;6256637;22;20036;-76
2021/04/25 09:12:49;;;;;;;18.10;12.38;;;12.00;98.40;;;;;;6278570;22;20015;-76
2021/04/25 09:15:20;;;;;;;23.15;14.90;;;12.10;97.00;;;;;;6275120;22;20098;-76
2021/04/25 09:17:49;;;;;;;25.55;16.00;;;12.40;96.60;;;;;;6252777;22;20058;-76
2021/04/25 09:20:17;;;;;;;25.58;15.48;;;12.50;96.00;;;;;;6277857;22;20106;-76
2021/04/25 09:22:52;;;;;;;20.50;13.90;;;12.50;95.40;;;;;;6275243;22;20412;-76
2021/04/25 09:25:19;;;;;;;21.05;12.60;;;12.60;95.30;;;;;;6272554;22;20522;-76
2021/04/25 09:27:52;;;;;;;20.00;13.25;;;12.60;94.60;;;;;;6277179;22;20015;-76
2021/04/25 09:30:25;;;;;;;20.27;14.70;;;12.60;95.10;;;;;;6277245;22;20021;-76
2021/04/25 09:33:06;;;;;;;18.85;13.98;;;12.70;95.00;;;;;;6278078;22;20011;-76
2021/04/25 09:35:39;;;;;;;17.35;12.70;;;12.90;94.90;;;;;;6278249;22;20019;-76
2021/04/25 09:38:14;;;;;;;22.08;14.48;;;13.00;93.90;;;;;;6278310;22;20110;-76
2021/04/25 09:40:50;;;;;;;20.20;14.15;;;13.00;94.40;;;;;;6276607;22;20511;-76
2021/04/25 09:43:19;;;;;;;17.65;12.20;;;13.00;94.80;;;;;;6278824;22;20019;-76
2021/04/25 09:45:48;;;;;;;24.80;14.98;;;13.10;93.30;;;;;;6277821;22;20047;-76
2021/04/25 09:48:30;;;;;;;19.38;13.35;;;13.20;93.40;;;;;;6279150;22;20015;-76
2021/04/25 09:51:04;;;;;;;19.17;12.13;;;13.20;92.50;;;;;;6254489;22;20178;-76
2021/04/25 09:53:38;;;;;;;14.40;10.57;;;13.20;93.60;;;;;;6254508;22;20025;-76
2021/04/25 09:56:09;;;;;;;16.67;11.85;;;13.20;92.60;;;;;;6277835;22;20016;-76
2021/04/25 09:58:56;;;;;;;16.55;12.10;;;13.20;92.70;;;;;;6254098;22;20041;-76
2021/04/25 10:01:28;;;;;;;19.67;10.82;;;13.40;92.90;;;;;;6278312;22;20041;-76
2021/04/25 10:04:01;;;;;;;19.10;10.65;;;13.50;91.10;;;;;;6277301;22;20019;-75
2021/04/25 10:06:51;;;;;;;15.88;10.07;;;13.60;90.40;;;;;;6305885;22;20016;-76
2021/04/25 10:09:21;;;;;;;13.93;8.80;;;13.80;86.40;;;;;;6279047;22;20106;-76
2021/04/25 10:11:58;;;;;;;16.13;10.27;;;13.90;83.90;;;;;;6279068;22;20098;-76
2021/04/25 10:14:31;;;;;;;14.15;8.45;;;14.00;82.40;;;;;;6279025;22;20019;-75
2021/04/25 10:17:03;;;;;;;;;;;14.10;78.70;;;;;;6277377;22;20530;-75
2021/04/25 10:19:31;;;;;;;15.40;8.70;;;14.10;77.60;;;;;;6277830;22;20304;-75
2021/04/25 10:22:03;;;;;;;11.25;7.63;;;14.10;79.20;;;;;;6251543;22;20023;-76
2021/04/25 10:24:29;;;;;;;10.65;7.05;;;14.10;77.10;;;;;;6277146;22;20019;-75
2021/04/25 10:27:07;;;;;;;10.52;6.90;;;14.30;71.30;;;;;;6253087;22;20473;-75
2021/04/25 10:29:38;;;;;;;11.65;7.93;;;14.30;70.10;;;;;;6253359;22;20387;-75
2021/04/25 10:32:10;;;;;;;14.18;8.18;;;14.50;72.50;;;;;;6253147;22;20038;-76
2021/04/25 10:34:41;;;;;;;12.02;8.05;;;14.40;70.70;;;;;;6251876;22;20058;-76
2021/04/25 10:37:13;;;;;;;10.88;7.15;;;14.30;70.90;;;;;;6278832;22;20011;-76
2021/04/25 10:39:53;;;;;;;11.15;8.73;;;14.40;69.90;;;;;;6277090;22;20102;-75
2021/04/25 10:42:28;;;;;;;13.18;7.97;;;14.50;69.20;;;;;;6251628;22;20019;-76
2021/04/25 10:44:58;;;;;;;14.45;9.32;;;14.50;70.30;;;;;;6276529;22;20011;-75
2021/04/25 10:47:31;;;;;;;12.25;8.57;;;14.50;68.30;;;;;;6253523;22;20379;-75
2021/04/25 10:50:15;;;;;;;11.43;7.73;;;14.50;67.40;;;;;;6278164;22;20019;-75
2021/04/25 10:52:52;;;;;;;12.10;7.95;;;14.50;68.40;;;;;;6276401;22;20026;-75
2021/04/25 10:55:28;;;;;;;12.00;8.20;;;14.50;65.70;;;;;;6278798;22;20023;-72
2021/04/25 10:58:04;;;;;;;11.63;7.95;;;14.60;65.00;;;;;;6305706;22;20019;-73
2021/04/25 11:00:35;;;;;;;20.40;14.98;;;14.60;64.70;;;;;;6278372;22;20028;-73
2021/04/25 11:03:20;;;;;;;13.70;9.13;;;14.60;64.90;;;;;;6305119;22;20039;-74
2021/04/25 11:05:52;;;;;;;12.02;7.90;;;14.60;64.60;;;;;;6278083;22;20060;-73
2021/04/25 11:08:29;;;;;;;11.48;6.82;;;14.60;62.40;;;;;;6279153;22;20093;-73
2021/04/25 11:11:05;;;;;;;15.93;8.27;;;14.70;62.10;;;;;;6305283;22;20015;-75
2021/04/25 11:13:34;;;;;;;17.75;12.75;;;14.80;62.20;;;;;;6305312;22;20090;-75
2021/04/25 11:16:08;;;;;;;12.23;8.98;;;14.80;60.00;;;;;;6275033;22;20011;-73
2021/04/25 11:18:49;;;;;;;14.18;9.65;;;14.90;61.50;;;;;;6279881;22;20025;-74
2021/04/25 11:21:46;;;;;;;11.70;8.48;;;15.00;62.40;;;;;;6253977;22;20019;-73
2021/04/25 11:24:17;;;;;;;12.20;8.50;;;15.00;62.20;;;;;;6253515;22;20098;-72
2021/04/25 11:26:55;;;;;;;10.88;8.70;;;15.00;60.80;;;;;;6254451;22;20015;-73
2021/04/25 11:29:38;;;;;;;11.15;8.57;;;15.10;61.10;;;;;;6253999;22;20098;-76
2021/04/25 11:32:24;;;;;;;12.45;8.20;;;15.00;60.00;;;;;;6254070;22;20023;-73
2021/04/25 11:35:01;;;;;;;12.07;9.35;;;14.90;59.30;;;;;;6277879;22;20347;-73
2021/04/25 11:37:32;;;;;;;9.60;7.50;;;14.80;61.20;;;;;;6278618;22;20464;-74
2021/04/25 11:40:07;;;;;;;12.75;6.93;;;14.90;61.00;;;;;;6280349;22;20086;-73
2021/04/25 11:42:46;;;;;;;11.05;7.85;;;15.00;57.70;;;;;;6305442;22;20015;-72
2021/04/25 11:45:23;;;;;;;12.50;7.38;;;15.10;57.10;;;;;;6305220;22;20440;-74
2021/04/25 11:48:00;;;;;;;11.65;8.13;;;15.30;56.10;;;;;;6253968;22;20097;-73
2021/04/25 11:50:35;;;;;;;12.50;8.40;;;15.50;56.30;;;;;;6304682;22;20046;-75
2021/04/25 11:53:06;;;;;;;12.18;8.95;;;15.60;56.90;;;;;;6278273;22;20046;-73
2021/04/25 11:55:39;;;;;;;13.65;8.70;;;15.50;55.90;;;;;;6305299;22;20312;-72
2021/04/25 11:58:11;;;;;;;8.90;7.20;;;15.60;54.90;;;;;;6278515;22;20015;-74
2021/04/25 12:00:42;;;;;;;10.60;7.80;;;15.60;56.60;;;;;;6253211;22;20019;-73
2021/04/25 12:03:09;;;;;;;12.57;8.02;;;15.70;55.70;;;;;;6277566;22;20011;-74
2021/04/25 12:05:40;;;;;;;11.52;7.82;;;15.80;55.70;;;;;;6303746;22;20018;-73
2021/04/25 12:08:14;;;;;;;14.90;7.05;;;15.90;54.00;;;;;;6277405;22;20015;-72
2021/04/25 12:10:47;;;;;;;12.60;6.82;;;15.70;52.40;;;;;;6305084;22;20458;-74
2021/04/25 12:13:20;;;;;;;10.55;7.30;;;15.70;51.70;;;;;;6278736;22;20629;-74
2021/04/25 12:15:57;;;;;;;8.15;6.20;;;15.60;53.00;;;;;;6252294;22;20026;-73
2021/04/25 12:18:30;;;;;;;8.32;6.13;;;15.60;51.00;;;;;;6270298;22;20525;-73
2021/04/25 12:21:03;;;;;;;;;;;15.60;49.80;;;;;;6275598;22;20081;-76
2021/04/25 12:23:33;;;;;;;8.32;5.80;;;15.60;51.20;;;;;;6276035;22;19915;-76
2021/04/25 12:26:07;;;;;;;11.43;6.93;;;15.70;50.20;;;;;;6302929;22;20017;-76
2021/04/25 12:28:42;;;;;;;8.23;6.80;;;15.70;49.40;;;;;;6303854;22;20463;-78
2021/04/25 12:31:15;;;;;;;8.50;5.90;;;15.60;48.90;;;;;;6275952;22;20012;-78
2021/04/25 12:33:44;;;;;;;9.00;5.55;;;15.60;49.40;;;;;;6304614;22;20019;-76
2021/04/25 12:36:18;;;;;;;7.88;6.43;;;15.50;49.10;;;;;;6276761;22;20019;-75
2021/04/25 12:39:01;;;;;;;7.65;6.25;;;15.50;49.70;;;;;;6304793;22;20015;-76
2021/04/25 12:41:40;;;;;;;7.85;5.72;;;15.60;51.30;;;;;;6278787;22;20094;-76
2021/04/25 12:44:13;;;;;;;7.63;5.93;;;15.70;50.00;;;;;;6276346;22;20022;-78
2021/04/25 12:47:02;;;;;;;8.75;5.55;;;15.80;49.00;;;;;;6278297;22;20086;-76
2021/04/25 12:49:39;;;;;;;8.07;5.68;;;15.90;48.20;;;;;;6305759;22;20015;-72
2021/04/25 12:52:11;;;;;;;6.78;5.30;;;15.90;47.60;;;;;;6304838;22;20016;-75
2021/04/25 12:54:45;;;;;;;7.68;5.75;;;15.90;47.80;;;;;;6250510;22;20112;-76
2021/04/25 12:57:29;;;;;;;7.03;4.53;;;16.10;47.90;;;;;;6279895;22;20023;-76
2021/04/25 13:00:00;;;;;;;;;;;16.20;46.80;;;;;;6253962;22;20023;-77
2021/04/25 13:02:33;;;;;;;7.80;4.65;;;16.30;46.30;;;;;;6253965;22;19938;-80
2021/04/25 13:05:08;;;;;;;9.20;5.85;;;16.30;45.80;;;;;;6278723;22;20023;-79